sensor_id;sensor_type;location;lat;lon;timestamp;temperature;humidity
17988;DHT22;9119;50.932;5.342;2023-04-15T00:00:15;10.80;99.90
17988;DHT22;9119;50.932;5.342;2023-04-15T00:02:41;10.40;99.90
17988;DHT22;9119;50.932;5.342;2023-04-15T00:05:07;10.30;99.90
17988;DHT22;9119;50.932;5.342;2023-04-15T00:07:33;10.10;99.90
17988;DHT22;9119;50.932;5.342;2023-04-15T00:09:59;9.80;99.90
17988;DHT22;9119;50.932;5.342;2023-04-15T00:12:25;9.80;99.90
17988;DHT22;9119;50.932;5.342;2023-04-15T00:14:52;9.80;99.90
17988;DHT22;9119;50.932;5.342;2023-04-15T00:17:17;9.90;99.90
17988;DHT22;9119;50.932;5.342;2023-04-15T00:19:43;9.90;99.90
17988;DHT22;9119;50.932;5.342;2023-04-15T00:22:10;9.70;99.90
17988;DHT22;9119;50.932;5.342;2023-04-15T00:24:36;9.60;99.90
17988;DHT22;9119;50.932;5.342;2023-04-15T00:27:02;9.70;99.90
17988;DHT22;9119;50.932;5.342;2023-04-15T00:29:29;9.70;99.90
17988;DHT22;9119;50.932;5.342;2023-04-15T00:31:55;9.60;99.90
17988;DHT22;9119;50.932;5.342;2023-04-15T00:34:22;9.70;99.90
17988;DHT22;9119;50.932;5.342;2023-04-15T00:36:48;9.90;99.90
17988;DHT22;9119;50.932;5.342;2023-04-15T00:39:14;9.80;99.90
17988;DHT22;9119;50.932;5.342;2023-04-15T00:41:41;9.70;99.90
17988;DHT22;9119;50.932;5.342;2023-04-15T00:44:07;9.70;99.90
17988;DHT22;9119;50.932;5.342;2023-04-15T00:46:35;9.90;99.90
17988;DHT22;9119;50.932;5.342;2023-04-15T00:49:03;10.10;99.90
17988;DHT22;9119;50.932;5.342;2023-04-15T00:51:29;10.00;99.90
17988;DHT22;9119;50.932;5.342;2023-04-15T00:53:56;9.70;99.90
17988;DHT22;9119;50.932;5.342;2023-04-15T00:56:22;9.70;99.90
17988;DHT22;9119;50.932;5.342;2023-04-15T00:58:50;9.60;99.90
17988;DHT22;9119;50.932;5.342;2023-04-15T01:01:19;9.60;99.90
17988;DHT22;9119;50.932;5.342;2023-04-15T01:03:46;9.60;99.90
17988;DHT22;9119;50.932;5.342;2023-04-15T01:06:13;9.60;99.90
17988;DHT22;9119;50.932;5.342;2023-04-15T01:08:38;9.60;99.90
17988;DHT22;9119;50.932;5.342;2023-04-15T01:11:05;9.70;99.90
17988;DHT22;9119;50.932;5.342;2023-04-15T01:13:33;9.70;99.90
17988;DHT22;9119;50.932;5.342;2023-04-15T01:15:59;9.90;99.90
17988;DHT22;9119;50.932;5.342;2023-04-15T01:18:26;10.00;99.90
17988;DHT22;9119;50.932;5.342;2023-04-15T01:20:52;10.30;99.90
17988;DHT22;9119;50.932;5.342;2023-04-15T01:23:18;10.30;99.90
17988;DHT22;9119;50.932;5.342;2023-04-15T01:25:44;10.40;99.90
17988;DHT22;9119;50.932;5.342;2023-04-15T01:28:11;10.40;99.90
17988;DHT22;9119;50.932;5.342;2023-04-15T01:30:36;10.20;99.90
17988;DHT22;9119;50.932;5.342;2023-04-15T01:33:02;10.00;99.90
17988;DHT22;9119;50.932;5.342;2023-04-15T01:35:28;9.80;99.90
17988;DHT22;9119;50.932;5.342;2023-04-15T01:37:59;9.80;99.90
17988;DHT22;9119;50.932;5.342;2023-04-15T01:40:27;9.80;99.90
17988;DHT22;9119;50.932;5.342;2023-04-15T01:42:53;9.70;99.90
17988;DHT22;9119;50.932;5.342;2023-04-15T01:45:19;9.50;99.90
17988;DHT22;9119;50.932;5.342;2023-04-15T01:47:44;9.40;99.90
17988;DHT22;9119;50.932;5.342;2023-04-15T01:50:10;9.40;99.90
17988;DHT22;9119;50.932;5.342;2023-04-15T01:52:36;9.40;99.90
17988;DHT22;9119;50.932;5.342;2023-04-15T01:55:02;9.40;99.90
17988;DHT22;9119;50.932;5.342;2023-04-15T01:57:27;9.50;99.90
17988;DHT22;9119;50.932;5.342;2023-04-15T01:59:53;9.40;99.90
17988;DHT22;9119;50.932;5.342;2023-04-15T02:02:19;9.40;99.90
17988;DHT22;9119;50.932;5.342;2023-04-15T02:04:44;9.50;99.90
17988;DHT22;9119;50.932;5.342;2023-04-15T02:07:10;9.60;99.90
17988;DHT22;9119;50.932;5.342;2023-04-15T02:09:36;9.70;99.90
17988;DHT22;9119;50.932;5.342;2023-04-15T02:12:01;9.70;99.90
17988;DHT22;9119;50.932;5.342;2023-04-15T02:14:27;9.70;99.90
17988;DHT22;9119;50.932;5.342;2023-04-15T02:16:53;9.60;99.90
17988;DHT22;9119;50.932;5.342;2023-04-15T02:19:18;9.60;99.90
17988;DHT22;9119;50.932;5.342;2023-04-15T02:21:44;9.60;99.90
17988;DHT22;9119;50.932;5.342;2023-04-15T02:24:10;9.70;99.90
17988;DHT22;9119;50.932;5.342;2023-04-15T02:26:36;9.60;99.90
17988;DHT22;9119;50.932;5.342;2023-04-15T02:29:02;9.70;99.90
17988;DHT22;9119;50.932;5.342;2023-04-15T02:31:28;9.70;99.90
17988;DHT22;9119;50.932;5.342;2023-04-15T02:33:54;9.70;99.90
17988;DHT22;9119;50.932;5.342;2023-04-15T02:36:19;9.70;99.90
17988;DHT22;9119;50.932;5.342;2023-04-15T02:38:45;9.80;99.90
17988;DHT22;9119;50.932;5.342;2023-04-15T02:41:11;9.80;99.90
17988;DHT22;9119;50.932;5.342;2023-04-15T02:43:37;9.70;99.90
17988;DHT22;9119;50.932;5.342;2023-04-15T02:46:04;9.70;99.90
17988;DHT22;9119;50.932;5.342;2023-04-15T02:48:30;9.60;99.90
17988;DHT22;9119;50.932;5.342;2023-04-15T02:51:31;9.60;99.90
17988;DHT22;9119;50.932;5.342;2023-04-15T02:53:57;9.60;99.90
17988;DHT22;9119;50.932;5.342;2023-04-15T02:56:22;9.60;99.90
17988;DHT22;9119;50.932;5.342;2023-04-15T02:58:48;9.60;99.90
17988;DHT22;9119;50.932;5.342;2023-04-15T03:01:15;9.60;99.90
17988;DHT22;9119;50.932;5.342;2023-04-15T03:03:41;9.60;99.90
17988;DHT22;9119;50.932;5.342;2023-04-15T03:06:06;9.70;99.90
17988;DHT22;9119;50.932;5.342;2023-04-15T03:08:33;9.80;99.90
17988;DHT22;9119;50.932;5.342;2023-04-15T03:10:59;9.80;99.90
17988;DHT22;9119;50.932;5.342;2023-04-15T03:13:26;9.70;99.90
17988;DHT22;9119;50.932;5.342;2023-04-15T03:15:52;9.70;99.90
17988;DHT22;9119;50.932;5.342;2023-04-15T03:18:18;9.70;99.90
17988;DHT22;9119;50.932;5.342;2023-04-15T03:20:43;9.70;99.90
17988;DHT22;9119;50.932;5.342;2023-04-15T03:23:09;9.70;99.90
17988;DHT22;9119;50.932;5.342;2023-04-15T03:25:35;9.70;99.90
17988;DHT22;9119;50.932;5.342;2023-04-15T03:28:02;9.60;99.90
17988;DHT22;9119;50.932;5.342;2023-04-15T03:30:28;9.60;99.90
17988;DHT22;9119;50.932;5.342;2023-04-15T03:32:53;9.70;99.90
17988;DHT22;9119;50.932;5.342;2023-04-15T03:35:19;9.70;99.90
17988;DHT22;9119;50.932;5.342;2023-04-15T03:37:45;9.80;99.90
17988;DHT22;9119;50.932;5.342;2023-04-15T03:40:11;9.70;99.90
17988;DHT22;9119;50.932;5.342;2023-04-15T03:42:37;9.70;99.90
17988;DHT22;9119;50.932;5.342;2023-04-15T03:45:03;9.80;99.90
17988;DHT22;9119;50.932;5.342;2023-04-15T03:47:29;9.80;99.90
17988;DHT22;9119;50.932;5.342;2023-04-15T03:49:54;9.80;99.90
17988;DHT22;9119;50.932;5.342;2023-04-15T03:52:20;9.80;99.90
17988;DHT22;9119;50.932;5.342;2023-04-15T03:54:46;9.80;99.90
17988;DHT22;9119;50.932;5.342;2023-04-15T03:57:12;9.70;99.90
17988;DHT22;9119;50.932;5.342;2023-04-15T03:59:37;9.60;99.90
17988;DHT22;9119;50.932;5.342;2023-04-15T04:02:03;9.50;99.90
17988;DHT22;9119;50.932;5.342;2023-04-15T04:04:29;9.60;99.90
17988;DHT22;9119;50.932;5.342;2023-04-15T04:06:54;9.60;99.90
17988;DHT22;9119;50.932;5.342;2023-04-15T04:09:20;9.60;99.90
17988;DHT22;9119;50.932;5.342;2023-04-15T04:11:46;9.50;99.90
17988;DHT22;9119;50.932;5.342;2023-04-15T04:14:11;9.60;99.90
17988;DHT22;9119;50.932;5.342;2023-04-15T04:16:37;9.60;99.90
17988;DHT22;9119;50.932;5.342;2023-04-15T04:19:03;9.60;99.90
17988;DHT22;9119;50.932;5.342;2023-04-15T04:21:28;9.60;99.90
17988;DHT22;9119;50.932;5.342;2023-04-15T04:23:54;9.60;99.90
17988;DHT22;9119;50.932;5.342;2023-04-15T04:26:21;9.60;99.90
17988;DHT22;9119;50.932;5.342;2023-04-15T04:28:47;9.50;99.90
17988;DHT22;9119;50.932;5.342;2023-04-15T04:31:12;9.50;99.90
17988;DHT22;9119;50.932;5.342;2023-04-15T04:33:38;9.30;99.90
17988;DHT22;9119;50.932;5.342;2023-04-15T04:36:05;9.30;99.90
17988;DHT22;9119;50.932;5.342;2023-04-15T04:38:30;9.40;99.90
17988;DHT22;9119;50.932;5.342;2023-04-15T04:40:56;9.40;99.90
17988;DHT22;9119;50.932;5.342;2023-04-15T04:43:22;9.30;99.90
17988;DHT22;9119;50.932;5.342;2023-04-15T04:45:47;9.30;99.90
17988;DHT22;9119;50.932;5.342;2023-04-15T04:48:13;9.20;99.90
17988;DHT22;9119;50.932;5.342;2023-04-15T04:50:39;9.10;99.90
17988;DHT22;9119;50.932;5.342;2023-04-15T04:53:04;9.10;99.90
17988;DHT22;9119;50.932;5.342;2023-04-15T04:55:30;9.00;99.90
17988;DHT22;9119;50.932;5.342;2023-04-15T04:57:56;9.10;99.90
17988;DHT22;9119;50.932;5.342;2023-04-15T05:00:22;9.10;99.90
17988;DHT22;9119;50.932;5.342;2023-04-15T05:02:47;9.10;99.90
17988;DHT22;9119;50.932;5.342;2023-04-15T05:05:13;9.10;99.90
17988;DHT22;9119;50.932;5.342;2023-04-15T05:07:39;9.10;99.90
17988;DHT22;9119;50.932;5.342;2023-04-15T05:10:05;9.10;99.90
17988;DHT22;9119;50.932;5.342;2023-04-15T05:12:31;9.10;99.90
17988;DHT22;9119;50.932;5.342;2023-04-15T05:14:57;9.10;99.90
17988;DHT22;9119;50.932;5.342;2023-04-15T05:17:22;9.20;99.90
17988;DHT22;9119;50.932;5.342;2023-04-15T05:19:48;9.20;99.90
17988;DHT22;9119;50.932;5.342;2023-04-15T05:22:14;9.20;99.90
17988;DHT22;9119;50.932;5.342;2023-04-15T05:24:40;9.20;99.90
17988;DHT22;9119;50.932;5.342;2023-04-15T05:27:05;9.40;99.90
17988;DHT22;9119;50.932;5.342;2023-04-15T05:29:33;9.30;99.90
17988;DHT22;9119;50.932;5.342;2023-04-15T05:31:59;9.20;99.90
17988;DHT22;9119;50.932;5.342;2023-04-15T05:34:24;9.20;99.90
17988;DHT22;9119;50.932;5.342;2023-04-15T05:36:50;9.20;99.90
17988;DHT22;9119;50.932;5.342;2023-04-15T05:39:17;9.20;99.90
17988;DHT22;9119;50.932;5.342;2023-04-15T05:41:43;9.20;99.90
17988;DHT22;9119;50.932;5.342;2023-04-15T05:44:08;9.20;99.90
17988;DHT22;9119;50.932;5.342;2023-04-15T05:46:34;9.20;99.90
17988;DHT22;9119;50.932;5.342;2023-04-15T05:49:00;9.20;99.90
17988;DHT22;9119;50.932;5.342;2023-04-15T05:51:26;9.20;99.90
17988;DHT22;9119;50.932;5.342;2023-04-15T05:53:52;9.10;99.90
17988;DHT22;9119;50.932;5.342;2023-04-15T05:56:17;9.10;99.90
17988;DHT22;9119;50.932;5.342;2023-04-15T05:58:45;9.10;99.90
17988;DHT22;9119;50.932;5.342;2023-04-15T06:01:10;9.10;99.90
17988;DHT22;9119;50.932;5.342;2023-04-15T06:03:37;9.10;99.90
17988;DHT22;9119;50.932;5.342;2023-04-15T06:06:03;9.20;99.90
17988;DHT22;9119;50.932;5.342;2023-04-15T06:08:29;9.20;99.90
17988;DHT22;9119;50.932;5.342;2023-04-15T06:10:54;9.10;99.90
17988;DHT22;9119;50.932;5.342;2023-04-15T06:13:20;9.00;99.90
17988;DHT22;9119;50.932;5.342;2023-04-15T06:15:46;9.10;99.90
17988;DHT22;9119;50.932;5.342;2023-04-15T06:18:11;9.10;99.90
17988;DHT22;9119;50.932;5.342;2023-04-15T06:20:37;9.20;99.90
17988;DHT22;9119;50.932;5.342;2023-04-15T06:23:03;9.20;99.90
17988;DHT22;9119;50.932;5.342;2023-04-15T06:25:29;9.20;99.90
17988;DHT22;9119;50.932;5.342;2023-04-15T06:27:54;9.20;99.90
17988;DHT22;9119;50.932;5.342;2023-04-15T06:30:20;9.30;99.90
17988;DHT22;9119;50.932;5.342;2023-04-15T06:32:46;9.40;99.90
17988;DHT22;9119;50.932;5.342;2023-04-15T06:35:13;9.50;99.90
17988;DHT22;9119;50.932;5.342;2023-04-15T06:37:38;9.50;99.90
17988;DHT22;9119;50.932;5.342;2023-04-15T06:40:05;9.50;99.90
17988;DHT22;9119;50.932;5.342;2023-04-15T06:42:31;9.50;99.90
17988;DHT22;9119;50.932;5.342;2023-04-15T06:44:57;9.60;99.90
17988;DHT22;9119;50.932;5.342;2023-04-15T06:47:22;9.80;99.90
17988;DHT22;9119;50.932;5.342;2023-04-15T06:49:48;9.90;99.90
17988;DHT22;9119;50.932;5.342;2023-04-15T06:52:14;10.10;99.90
17988;DHT22;9119;50.932;5.342;2023-04-15T06:54:41;10.20;99.90
17988;DHT22;9119;50.932;5.342;2023-04-15T06:57:07;10.20;99.90
17988;DHT22;9119;50.932;5.342;2023-04-15T06:59:33;10.30;99.90
17988;DHT22;9119;50.932;5.342;2023-04-15T07:01:59;10.40;99.90
17988;DHT22;9119;50.932;5.342;2023-04-15T07:04:25;10.50;99.90
17988;DHT22;9119;50.932;5.342;2023-04-15T07:06:50;10.70;99.90
17988;DHT22;9119;50.932;5.342;2023-04-15T07:09:16;10.70;99.90
17988;DHT22;9119;50.932;5.342;2023-04-15T07:11:42;10.70;99.90
17988;DHT22;9119;50.932;5.342;2023-04-15T07:14:08;10.80;99.90
17988;DHT22;9119;50.932;5.342;2023-04-15T07:16:33;10.90;99.90
17988;DHT22;9119;50.932;5.342;2023-04-15T07:18:59;10.80;99.90
17988;DHT22;9119;50.932;5.342;2023-04-15T07:21:25;10.80;99.90
17988;DHT22;9119;50.932;5.342;2023-04-15T07:23:52;10.80;99.90
17988;DHT22;9119;50.932;5.342;2023-04-15T07:26:17;10.90;99.90
17988;DHT22;9119;50.932;5.342;2023-04-15T07:28:43;10.90;99.90
17988;DHT22;9119;50.932;5.342;2023-04-15T07:31:10;11.10;99.90
17988;DHT22;9119;50.932;5.342;2023-04-15T07:33:36;11.20;99.90
17988;DHT22;9119;50.932;5.342;2023-04-15T07:36:02;11.20;99.90
17988;DHT22;9119;50.932;5.342;2023-04-15T07:38:28;11.30;99.90
17988;DHT22;9119;50.932;5.342;2023-04-15T07:40:54;11.50;99.90
17988;DHT22;9119;50.932;5.342;2023-04-15T07:43:21;11.60;99.90
17988;DHT22;9119;50.932;5.342;2023-04-15T07:45:46;11.70;99.90
17988;DHT22;9119;50.932;5.342;2023-04-15T07:48:12;11.70;99.90
17988;DHT22;9119;50.932;5.342;2023-04-15T07:50:38;11.70;99.90
17988;DHT22;9119;50.932;5.342;2023-04-15T07:53:03;11.80;99.90
17988;DHT22;9119;50.932;5.342;2023-04-15T07:55:30;11.90;99.90
17988;DHT22;9119;50.932;5.342;2023-04-15T07:57:56;12.00;99.90
17988;DHT22;9119;50.932;5.342;2023-04-15T08:00:22;12.10;99.90
17988;DHT22;9119;50.932;5.342;2023-04-15T08:02:48;12.10;99.90
17988;DHT22;9119;50.932;5.342;2023-04-15T08:05:14;12.20;99.90
17988;DHT22;9119;50.932;5.342;2023-04-15T08:07:40;12.40;99.90
17988;DHT22;9119;50.932;5.342;2023-04-15T08:10:06;12.30;99.90
17988;DHT22;9119;50.932;5.342;2023-04-15T08:12:32;12.30;99.90
17988;DHT22;9119;50.932;5.342;2023-04-15T08:14:58;12.30;99.90
17988;DHT22;9119;50.932;5.342;2023-04-15T08:17:26;12.40;99.90
17988;DHT22;9119;50.932;5.342;2023-04-15T08:19:52;12.40;99.90
17988;DHT22;9119;50.932;5.342;2023-04-15T08:22:18;12.40;99.90
17988;DHT22;9119;50.932;5.342;2023-04-15T08:24:44;12.50;99.90
17988;DHT22;9119;50.932;5.342;2023-04-15T08:27:10;12.50;99.90
17988;DHT22;9119;50.932;5.342;2023-04-15T08:29:35;12.50;99.90
17988;DHT22;9119;50.932;5.342;2023-04-15T08:32:01;12.70;99.90
17988;DHT22;9119;50.932;5.342;2023-04-15T08:34:27;12.70;99.90
17988;DHT22;9119;50.932;5.342;2023-04-15T08:36:53;12.80;99.90
17988;DHT22;9119;50.932;5.342;2023-04-15T08:39:19;12.90;99.90
17988;DHT22;9119;50.932;5.342;2023-04-15T08:41:47;13.00;99.90
17988;DHT22;9119;50.932;5.342;2023-04-15T08:44:13;12.90;99.90
17988;DHT22;9119;50.932;5.342;2023-04-15T08:46:40;13.00;99.90
17988;DHT22;9119;50.932;5.342;2023-04-15T08:49:10;13.00;99.90
17988;DHT22;9119;50.932;5.342;2023-04-15T08:51:42;13.30;99.90
17988;DHT22;9119;50.932;5.342;2023-04-15T08:54:08;13.30;99.90
17988;DHT22;9119;50.932;5.342;2023-04-15T08:56:34;13.70;99.90
17988;DHT22;9119;50.932;5.342;2023-04-15T08:59:01;14.20;99.90
17988;DHT22;9119;50.932;5.342;2023-04-15T09:01:28;14.20;99.90
17988;DHT22;9119;50.932;5.342;2023-04-15T09:03:55;14.10;99.90
17988;DHT22;9119;50.932;5.342;2023-04-15T09:06:21;14.20;99.90
17988;DHT22;9119;50.932;5.342;2023-04-15T09:08:49;14.60;99.90
17988;DHT22;9119;50.932;5.342;2023-04-15T09:11:16;14.90;99.90
17988;DHT22;9119;50.932;5.342;2023-04-15T09:13:42;15.50;99.90
17988;DHT22;9119;50.932;5.342;2023-04-15T09:16:08;15.40;99.90
17988;DHT22;9119;50.932;5.342;2023-04-15T09:18:35;15.50;99.90
17988;DHT22;9119;50.932;5.342;2023-04-15T09:21:06;15.50;99.90
17988;DHT22;9119;50.932;5.342;2023-04-15T09:23:34;15.30;99.90
17988;DHT22;9119;50.932;5.342;2023-04-15T09:26:01;15.30;99.90
17988;DHT22;9119;50.932;5.342;2023-04-15T09:28:27;15.20;99.90
17988;DHT22;9119;50.932;5.342;2023-04-15T09:30:57;15.60;99.90
17988;DHT22;9119;50.932;5.342;2023-04-15T09:33:23;15.80;99.90
17988;DHT22;9119;50.932;5.342;2023-04-15T09:36:01;16.00;99.90
17988;DHT22;9119;50.932;5.342;2023-04-15T09:38:28;16.30;99.90
17988;DHT22;9119;50.932;5.342;2023-04-15T09:40:54;16.10;99.90
17988;DHT22;9119;50.932;5.342;2023-04-15T09:43:20;16.00;99.90
17988;DHT22;9119;50.932;5.342;2023-04-15T09:45:51;16.30;99.90
17988;DHT22;9119;50.932;5.342;2023-04-15T09:48:18;16.50;99.90
17988;DHT22;9119;50.932;5.342;2023-04-15T09:50:46;16.60;99.90
17988;DHT22;9119;50.932;5.342;2023-04-15T09:53:21;16.70;99.90
17988;DHT22;9119;50.932;5.342;2023-04-15T09:55:57;16.50;99.90
17988;DHT22;9119;50.932;5.342;2023-04-15T09:58:27;16.10;99.90
17988;DHT22;9119;50.932;5.342;2023-04-15T10:00:54;16.30;99.90
17988;DHT22;9119;50.932;5.342;2023-04-15T10:03:32;16.40;99.90
17988;DHT22;9119;50.932;5.342;2023-04-15T10:06:00;16.70;99.90
17988;DHT22;9119;50.932;5.342;2023-04-15T10:08:31;16.90;99.90
17988;DHT22;9119;50.932;5.342;2023-04-15T10:10:58;16.10;99.90
17988;DHT22;9119;50.932;5.342;2023-04-15T10:13:26;16.30;99.90
17988;DHT22;9119;50.932;5.342;2023-04-15T10:15:58;16.80;99.90
17988;DHT22;9119;50.932;5.342;2023-04-15T10:18:26;16.60;99.90
17988;DHT22;9119;50.932;5.342;2023-04-15T10:20:53;16.70;99.90
17988;DHT22;9119;50.932;5.342;2023-04-15T10:23:21;16.40;99.90
17988;DHT22;9119;50.932;5.342;2023-04-15T10:25:48;16.70;99.90
17988;DHT22;9119;50.932;5.342;2023-04-15T10:28:16;16.90;99.90
17988;DHT22;9119;50.932;5.342;2023-04-15T10:30:42;16.30;99.90
17988;DHT22;9119;50.932;5.342;2023-04-15T10:33:09;16.20;99.90
17988;DHT22;9119;50.932;5.342;2023-04-15T10:35:36;16.30;99.90
17988;DHT22;9119;50.932;5.342;2023-04-15T10:38:02;16.50;99.90
17988;DHT22;9119;50.932;5.342;2023-04-15T10:40:49;16.40;99.90
17988;DHT22;9119;50.932;5.342;2023-04-15T10:43:24;16.30;99.90
17988;DHT22;9119;50.932;5.342;2023-04-15T10:45:52;16.10;99.90
17988;DHT22;9119;50.932;5.342;2023-04-15T10:48:18;16.40;99.90
17988;DHT22;9119;50.932;5.342;2023-04-15T10:50:55;16.30;99.90
17988;DHT22;9119;50.932;5.342;2023-04-15T10:53:30;15.90;99.90
17988;DHT22;9119;50.932;5.342;2023-04-15T10:55:59;15.70;99.90
17988;DHT22;9119;50.932;5.342;2023-04-15T10:58:25;16.20;99.90
17988;DHT22;9119;50.932;5.342;2023-04-15T11:00:52;16.60;99.90
17988;DHT22;9119;50.932;5.342;2023-04-15T11:03:36;16.40;99.90
17988;DHT22;9119;50.932;5.342;2023-04-15T11:06:04;16.30;99.90
17988;DHT22;9119;50.932;5.342;2023-04-15T11:08:56;15.80;99.90
17988;DHT22;9119;50.932;5.342;2023-04-15T11:12:03;16.40;99.90
17988;DHT22;9119;50.932;5.342;2023-04-15T11:14:15;16.00;99.90
17988;DHT22;9119;50.932;5.342;2023-04-15T11:16:43;16.30;99.90
17988;DHT22;9119;50.932;5.342;2023-04-15T11:19:09;16.60;99.90
17988;DHT22;9119;50.932;5.342;2023-04-15T11:21:35;16.90;99.90
17988;DHT22;9119;50.932;5.342;2023-04-15T11:24:01;17.30;99.90
17988;DHT22;9119;50.932;5.342;2023-04-15T11:26:28;17.20;99.90
17988;DHT22;9119;50.932;5.342;2023-04-15T11:28:54;17.30;99.90
17988;DHT22;9119;50.932;5.342;2023-04-15T11:31:20;17.20;99.90
17988;DHT22;9119;50.932;5.342;2023-04-15T11:33:55;17.50;99.90
17988;DHT22;9119;50.932;5.342;2023-04-15T11:36:25;17.00;99.90
17988;DHT22;9119;50.932;5.342;2023-04-15T11:38:52;17.10;99.90
17988;DHT22;9119;50.932;5.342;2023-04-15T11:41:21;17.00;99.90
17988;DHT22;9119;50.932;5.342;2023-04-15T11:43:48;16.20;99.90
17988;DHT22;9119;50.932;5.342;2023-04-15T11:46:14;16.10;99.90
17988;DHT22;9119;50.932;5.342;2023-04-15T11:48:45;15.30;99.90
17988;DHT22;9119;50.932;5.342;2023-04-15T11:51:12;15.00;99.90
17988;DHT22;9119;50.932;5.342;2023-04-15T11:53:47;15.10;99.90
17988;DHT22;9119;50.932;5.342;2023-04-15T11:56:19;15.00;99.90
17988;DHT22;9119;50.932;5.342;2023-04-15T11:58:46;14.90;99.90
17988;DHT22;9119;50.932;5.342;2023-04-15T12:01:12;15.00;99.90
17988;DHT22;9119;50.932;5.342;2023-04-15T12:11:34;14.90;99.90
17988;DHT22;9119;50.932;5.342;2023-04-15T12:16:45;15.10;99.90
17988;DHT22;9119;50.932;5.342;2023-04-15T12:19:35;15.10;99.90
17988;DHT22;9119;50.932;5.342;2023-04-15T12:22:07;14.90;99.90
17988;DHT22;9119;50.932;5.342;2023-04-15T12:24:35;14.90;99.90
17988;DHT22;9119;50.932;5.342;2023-04-15T12:27:03;14.70;99.90
17988;DHT22;9119;50.932;5.342;2023-04-15T12:29:29;14.70;99.90
17988;DHT22;9119;50.932;5.342;2023-04-15T12:31:58;14.80;99.90
17988;DHT22;9119;50.932;5.342;2023-04-15T12:34:32;14.90;99.90
17988;DHT22;9119;50.932;5.342;2023-04-15T12:37:00;15.10;99.90
17988;DHT22;9119;50.932;5.342;2023-04-15T12:39:28;15.00;99.90
17988;DHT22;9119;50.932;5.342;2023-04-15T12:41:54;14.90;99.90
17988;DHT22;9119;50.932;5.342;2023-04-15T12:44:22;15.10;99.90
17988;DHT22;9119;50.932;5.342;2023-04-15T12:46:51;14.70;99.90
17988;DHT22;9119;50.932;5.342;2023-04-15T12:49:18;14.90;99.90
17988;DHT22;9119;50.932;5.342;2023-04-15T12:51:48;15.00;99.90
17988;DHT22;9119;50.932;5.342;2023-04-15T12:54:15;15.20;99.90
17988;DHT22;9119;50.932;5.342;2023-04-15T12:56:42;15.20;99.90
17988;DHT22;9119;50.932;5.342;2023-04-15T12:59:07;15.10;99.90
17988;DHT22;9119;50.932;5.342;2023-04-15T13:01:33;15.00;99.90
17988;DHT22;9119;50.932;5.342;2023-04-15T13:03:59;15.10;99.90
17988;DHT22;9119;50.932;5.342;2023-04-15T13:06:24;15.20;99.90
17988;DHT22;9119;50.932;5.342;2023-04-15T13:08:50;15.20;99.90
17988;DHT22;9119;50.932;5.342;2023-04-15T13:11:19;15.00;99.90
17988;DHT22;9119;50.932;5.342;2023-04-15T13:13:44;15.00;99.90
17988;DHT22;9119;50.932;5.342;2023-04-15T13:16:10;15.00;99.90
17988;DHT22;9119;50.932;5.342;2023-04-15T13:18:36;15.10;99.90
17988;DHT22;9119;50.932;5.342;2023-04-15T13:21:01;15.00;99.90
17988;DHT22;9119;50.932;5.342;2023-04-15T13:23:28;15.30;99.90
17988;DHT22;9119;50.932;5.342;2023-04-15T13:25:54;15.50;99.90
17988;DHT22;9119;50.932;5.342;2023-04-15T13:28:19;15.50;99.90
17988;DHT22;9119;50.932;5.342;2023-04-15T13:30:45;15.40;99.90
17988;DHT22;9119;50.932;5.342;2023-04-15T13:33:13;15.40;99.90
17988;DHT22;9119;50.932;5.342;2023-04-15T13:35:38;15.40;99.90
17988;DHT22;9119;50.932;5.342;2023-04-15T13:38:04;15.60;99.90
17988;DHT22;9119;50.932;5.342;2023-04-15T13:40:30;15.50;99.90
17988;DHT22;9119;50.932;5.342;2023-04-15T13:42:56;15.30;99.90
17988;DHT22;9119;50.932;5.342;2023-04-15T13:45:23;15.20;99.90
17988;DHT22;9119;50.932;5.342;2023-04-15T13:47:48;15.10;99.90
17988;DHT22;9119;50.932;5.342;2023-04-15T13:50:14;15.30;99.90
17988;DHT22;9119;50.932;5.342;2023-04-15T13:52:40;15.50;99.90
17988;DHT22;9119;50.932;5.342;2023-04-15T13:55:06;15.40;99.90
17988;DHT22;9119;50.932;5.342;2023-04-15T13:57:31;15.10;99.90
17988;DHT22;9119;50.932;5.342;2023-04-15T13:59:57;15.20;99.90
17988;DHT22;9119;50.932;5.342;2023-04-15T14:02:23;15.10;99.90
17988;DHT22;9119;50.932;5.342;2023-04-15T14:04:48;15.10;99.90
17988;DHT22;9119;50.932;5.342;2023-04-15T14:07:14;15.10;99.90
17988;DHT22;9119;50.932;5.342;2023-04-15T14:09:40;15.10;99.90
17988;DHT22;9119;50.932;5.342;2023-04-15T14:12:06;15.20;99.90
17988;DHT22;9119;50.932;5.342;2023-04-15T14:14:32;15.30;99.90
17988;DHT22;9119;50.932;5.342;2023-04-15T14:16:57;15.30;99.90
17988;DHT22;9119;50.932;5.342;2023-04-15T14:19:23;15.20;99.90
17988;DHT22;9119;50.932;5.342;2023-04-15T14:21:49;15.10;99.90
17988;DHT22;9119;50.932;5.342;2023-04-15T14:24:15;14.80;99.90
17988;DHT22;9119;50.932;5.342;2023-04-15T14:26:42;14.90;99.90
17988;DHT22;9119;50.932;5.342;2023-04-15T14:29:09;15.00;99.90
17988;DHT22;9119;50.932;5.342;2023-04-15T14:31:34;15.10;99.90
17988;DHT22;9119;50.932;5.342;2023-04-15T14:34:00;15.20;99.90
17988;DHT22;9119;50.932;5.342;2023-04-15T14:36:26;15.10;99.90
17988;DHT22;9119;50.932;5.342;2023-04-15T14:38:52;15.10;99.90
17988;DHT22;9119;50.932;5.342;2023-04-15T14:41:18;15.10;99.90
17988;DHT22;9119;50.932;5.342;2023-04-15T14:43:44;14.90;99.90
17988;DHT22;9119;50.932;5.342;2023-04-15T14:46:10;14.70;99.90
17988;DHT22;9119;50.932;5.342;2023-04-15T14:48:35;14.80;99.90
17988;DHT22;9119;50.932;5.342;2023-04-15T14:51:01;14.90;99.90
17988;DHT22;9119;50.932;5.342;2023-04-15T14:53:27;14.90;99.90
17988;DHT22;9119;50.932;5.342;2023-04-15T14:55:53;14.80;99.90
17988;DHT22;9119;50.932;5.342;2023-04-15T14:58:18;14.70;99.90
17988;DHT22;9119;50.932;5.342;2023-04-15T15:00:44;14.70;99.90
17988;DHT22;9119;50.932;5.342;2023-04-15T15:03:10;14.70;99.90
17988;DHT22;9119;50.932;5.342;2023-04-15T15:05:40;14.70;99.90
17988;DHT22;9119;50.932;5.342;2023-04-15T15:08:07;14.70;99.90
17988;DHT22;9119;50.932;5.342;2023-04-15T15:10:34;14.70;99.90
17988;DHT22;9119;50.932;5.342;2023-04-15T15:13:05;14.70;99.90
17988;DHT22;9119;50.932;5.342;2023-04-15T15:15:31;14.60;99.90
17988;DHT22;9119;50.932;5.342;2023-04-15T15:17:57;14.70;99.90
17988;DHT22;9119;50.932;5.342;2023-04-15T15:20:23;14.60;99.90
17988;DHT22;9119;50.932;5.342;2023-04-15T15:22:50;14.70;99.90
17988;DHT22;9119;50.932;5.342;2023-04-15T15:25:15;14.90;99.90
17988;DHT22;9119;50.932;5.342;2023-04-15T15:27:41;15.10;99.90
17988;DHT22;9119;50.932;5.342;2023-04-15T15:30:08;15.30;99.90
17988;DHT22;9119;50.932;5.342;2023-04-15T15:32:34;15.00;99.90
17988;DHT22;9119;50.932;5.342;2023-04-15T15:34:59;14.90;99.90
17988;DHT22;9119;50.932;5.342;2023-04-15T15:37:25;14.90;99.90
17988;DHT22;9119;50.932;5.342;2023-04-15T15:39:52;14.70;99.90
17988;DHT22;9119;50.932;5.342;2023-04-15T15:42:18;14.80;99.90
17988;DHT22;9119;50.932;5.342;2023-04-15T15:44:44;14.80;99.90
17988;DHT22;9119;50.932;5.342;2023-04-15T15:47:10;14.90;99.90
17988;DHT22;9119;50.932;5.342;2023-04-15T15:49:36;14.80;99.90
17988;DHT22;9119;50.932;5.342;2023-04-15T15:52:02;14.70;99.90
17988;DHT22;9119;50.932;5.342;2023-04-15T15:54:27;14.70;99.90
17988;DHT22;9119;50.932;5.342;2023-04-15T15:56:53;14.60;99.90
17988;DHT22;9119;50.932;5.342;2023-04-15T15:59:19;14.50;99.90